Airfield :
LOGIN :

Register | Disclaimer

   EN    FR    IT 

 










Legend :    VFR   Marginal VFR   IFR   Intensive IFR   Very Intensive IFR
Visi :
Ceiling :
>= 8 km
>= 3000ft
5 to 8 km
1000 to 3000 ft
1500m to 5 km
500 to 1000 ft
800 to 1500m
200 to 500 ft
< 800m
< 200 ft
Symbols :   Thunderstorms  Fog  Heavy snow  Heavy precipitations  Wind > 20 kt
SIGMETs :     Misc.  Thunderstorms  Icing  Turbulence  Mountain Waves  Volcanic Ashes






- Airport Elevation : 97 ft
- IATA code : EBJ


EKEB - Esbjerg

CURRENT METAR :
  • 210550Z AUTO 06002KT 5000 BKN002/// 10/10 Q1020

EXPIRED METARs :
  • 210520Z AUTO 02001KT 0750 R08/P1500N R26/P1500N FG BKN002/// 09/09 Q1020
  • 210450Z AUTO 36001KT 0450 R08/P1500N R26/1400D FG BKN002/// 09/09 Q1020
  • 210420Z AUTO 16001KT 0300 R08/1200N R26/1000U FG VV006 09/09 Q1020
  • 210350Z AUTO 00000KT 1200 R08/P1500N R26/P1500D BR OVC002/// 08/08 Q1020
  • 210320Z AUTO 15001KT 6000 SCT002/// OVC004/// 08/08 Q1020

TAF TAF EKEB
Valid from the 21 at 06:00 until the 21 at 15:00 UTC


210526Z 2106/2115 10002KT 0400 FG VV002
TEMPO 2106/2107 1500 BCFG BKN007
BECMG 2107/2109 2500 BR BKN010
TEMPO 2109/2111 SCT010
BECMG 2111/2112 FEW015



MET'MAP, your aeronautical weather chart ! - Copyright ORBIFLY December 2007 - Disclaimer

ORBIFLY MET'MAP TEAM :

Programming & Development : Alexandra Zaïnal
Concept & original design : Baudouin d'Aumeries
Assistance for programming : Marc-Olivier Méhu
Technical & hardware support : Manuel Goepfert

Contact : metmap@orbifly.com




SOURCES & CREDITS :

   NOAA